createdAt,value
2022-10-24T00:02:09.532Z,98753.72
2022-10-24T00:04:38.198Z,98748.50
2022-10-24T00:07:05.956Z,98745.03
2022-10-24T00:09:33.272Z,98747.78
2022-10-24T00:11:59.870Z,98752.09
2022-10-24T00:14:26.570Z,98750.25
2022-10-24T00:16:53.187Z,98751.13
2022-10-24T00:19:19.742Z,98746.41
2022-10-24T00:21:46.553Z,98749.00
2022-10-24T00:24:13.239Z,98745.72
2022-10-24T00:26:39.786Z,98735.31
2022-10-24T00:29:06.353Z,98727.81
2022-10-24T00:31:33.427Z,98732.41
2022-10-24T00:34:00.416Z,98729.19
2022-10-24T00:36:28.233Z,98737.97
2022-10-24T00:38:54.894Z,98739.66
2022-10-24T00:41:27.577Z,98745.84
2022-10-24T00:44:13.103Z,98739.72
2022-10-24T00:46:41.974Z,98739.84
2022-10-24T00:49:13.078Z,98746.41
2022-10-24T00:51:39.946Z,98751.75
2022-10-24T00:54:09.437Z,98759.63
2022-10-24T00:56:42.281Z,98757.06
2022-10-24T00:59:09.600Z,98746.59
2022-10-24T01:01:36.998Z,98771.75
2022-10-24T01:04:04.314Z,98770.06
2022-10-24T01:06:39.901Z,98766.72
2022-10-24T01:09:22.225Z,98766.88
2022-10-24T01:11:57.712Z,98758.25
2022-10-24T01:14:31.844Z,98750.31
2022-10-24T01:17:09.415Z,98752.97
2022-10-24T01:19:38.896Z,98755.59
2022-10-24T01:22:17.388Z,98753.72
2022-10-24T01:25:03.794Z,98750.19
2022-10-24T01:27:50.473Z,98750.00
2022-10-24T01:30:17.764Z,98742.94
2022-10-24T01:33:15.875Z,98734.97
2022-10-24T01:35:52.932Z,98739.16
2022-10-24T01:38:34.883Z,98744.25
2022-10-24T01:41:10.353Z,98749.25
2022-10-24T01:43:43.967Z,98752.81
2022-10-24T01:46:15.833Z,98744.16
2022-10-24T01:48:48.020Z,98747.91
2022-10-24T01:51:15.897Z,98740.16
2022-10-24T01:53:43.730Z,98753.19
2022-10-24T01:56:10.237Z,98755.72
2022-10-24T01:58:36.773Z,98753.84
2022-10-24T02:01:07.954Z,98757.09
2022-10-24T02:03:40.576Z,98755.28
2022-10-24T02:06:15.105Z,98759.63
2022-10-24T02:08:46.955Z,98766.47
2022-10-24T02:11:14.001Z,98757.66
2022-10-24T02:13:50.209Z,98760.19
2022-10-24T02:16:18.593Z,98762.41
2022-10-24T02:18:46.749Z,98763.22
2022-10-24T02:21:24.155Z,98763.34
2022-10-24T02:23:59.855Z,98759.50
2022-10-24T02:26:46.838Z,98755.53
2022-10-24T02:29:21.529Z,98754.84
2022-10-24T02:31:54.101Z,98754.16
2022-10-24T02:34:22.044Z,98756.03
2022-10-24T02:36:49.304Z,98759.59
2022-10-24T02:39:16.622Z,98744.09
2022-10-24T02:41:44.469Z,98749.28
2022-10-24T02:44:13.109Z,98739.81
2022-10-24T02:46:40.237Z,98737.09
2022-10-24T02:49:06.774Z,98730.34
2022-10-24T02:51:38.032Z,98727.81
2022-10-24T02:54:05.103Z,98728.81
2022-10-24T02:56:31.879Z,98728.81
2022-10-24T02:58:58.564Z,98730.53
2022-10-24T03:01:25.222Z,98724.47
2022-10-24T03:03:51.747Z,98714.16
2022-10-24T03:06:18.442Z,98723.59
2022-10-24T03:08:44.949Z,98720.19
2022-10-24T03:11:11.633Z,98705.38
2022-10-24T03:13:38.199Z,98714.88
2022-10-24T03:16:06.798Z,98710.59
2022-10-24T03:18:35.691Z,98724.25
2022-10-24T03:21:02.198Z,98734.50
2022-10-24T03:23:28.794Z,98736.16
2022-10-24T03:25:59.192Z,98734.34
2022-10-24T03:28:25.756Z,98735.09
2022-10-24T03:30:53.254Z,98728.19
2022-10-24T03:33:20.269Z,98734.81
2022-10-24T03:35:46.791Z,98729.47
2022-10-24T03:38:13.345Z,98738.34
2022-10-24T03:40:39.953Z,98734.81
2022-10-24T03:43:06.558Z,98736.56
2022-10-24T03:45:33.102Z,98740.84
2022-10-24T03:47:59.664Z,98741.41
2022-10-24T03:50:26.266Z,98744.84
2022-10-24T03:52:53.031Z,98744.63
2022-10-24T03:55:19.562Z,98749.94
2022-10-24T03:57:46.309Z,98753.28
2022-10-24T04:00:13.837Z,98746.59
2022-10-24T04:02:43.111Z,98750.13
2022-10-24T04:05:10.487Z,98751.94
2022-10-24T04:07:37.224Z,98756.22
2022-10-24T04:10:05.126Z,98757.06
2022-10-24T04:12:31.803Z,98764.03
2022-10-24T04:15:02.414Z,98765.69
2022-10-24T04:17:31.504Z,98773.31
2022-10-24T04:19:58.034Z,98764.03
2022-10-24T04:22:24.627Z,98769.16
2022-10-24T04:24:51.345Z,98765.69
2022-10-24T04:27:17.868Z,98775.22
2022-10-24T04:29:44.424Z,98772.31
2022-10-24T04:32:10.980Z,98781.63
2022-10-24T04:34:37.461Z,98787.66
2022-10-24T04:37:04.118Z,98794.53
2022-10-24T04:39:30.545Z,98791.13
2022-10-24T04:41:57.080Z,98790.31
2022-10-24T04:44:23.646Z,98785.97
2022-10-24T04:46:51.482Z,98787.69
2022-10-24T04:49:18.174Z,98795.66
2022-10-24T04:51:44.754Z,98784.28
2022-10-24T04:54:11.420Z,98781.69
2022-10-24T04:56:40.736Z,98786.03
2022-10-24T04:59:07.443Z,98791.03
2022-10-24T05:01:34.017Z,98791.03
2022-10-24T05:06:28.064Z,98800.34
2022-10-24T05:08:54.547Z,98798.69
2022-10-24T05:11:21.028Z,98810.91
2022-10-24T05:13:47.517Z,98816.78
2022-10-24T05:16:14.053Z,98804.72
2022-10-24T05:18:40.523Z,98806.31
2022-10-24T05:21:07.120Z,98809.84
2022-10-24T05:23:33.651Z,98802.31
2022-10-24T05:26:00.191Z,98799.78
2022-10-24T05:28:27.018Z,98799.84
2022-10-24T05:30:53.474Z,98798.97
2022-10-24T05:33:20.032Z,98801.59
2022-10-24T05:35:46.630Z,98792.09
2022-10-24T05:38:13.168Z,98791.25
2022-10-24T05:40:39.652Z,98793.09
2022-10-24T05:43:06.220Z,98784.47
2022-10-24T05:45:33.016Z,98785.28
2022-10-24T05:47:59.569Z,98778.47
2022-10-24T05:50:27.088Z,98782.00
2022-10-24T05:52:53.810Z,98783.72
2022-10-24T05:55:20.366Z,98783.72
2022-10-24T05:57:47.424Z,98788.00
2022-10-24T06:00:16.622Z,98781.13
2022-10-24T06:02:44.168Z,98776.78
2022-10-24T06:05:11.687Z,98781.06
2022-10-24T06:07:38.760Z,98787.28
2022-10-24T06:10:06.564Z,98772.50
2022-10-24T06:12:33.155Z,98781.19
2022-10-24T06:15:00.468Z,98782.88
2022-10-24T06:17:27.420Z,98791.34
2022-10-24T06:19:54.306Z,98799.72
2022-10-24T06:22:24.649Z,98791.03
2022-10-24T06:24:51.330Z,98796.28
2022-10-24T06:27:17.924Z,98789.94
2022-10-24T06:29:44.585Z,98784.63
2022-10-24T06:32:11.422Z,98781.94
2022-10-24T06:34:38.038Z,98780.41
2022-10-24T06:37:04.796Z,98770.72
2022-10-24T06:39:31.347Z,98772.72
2022-10-24T06:41:57.905Z,98772.66
2022-10-24T06:44:24.488Z,98780.53
2022-10-24T06:46:50.972Z,98796.28
2022-10-24T06:49:17.595Z,98801.66
2022-10-24T06:51:44.388Z,98802.63
2022-10-24T06:54:11.271Z,98802.69
2022-10-24T06:56:37.883Z,98813.22
2022-10-24T06:59:09.492Z,98809.00
2022-10-24T07:01:36.203Z,98820.22
2022-10-24T07:04:03.194Z,98817.75
2022-10-24T07:06:30.084Z,98814.34
2022-10-24T07:08:58.885Z,98818.88
2022-10-24T07:11:26.210Z,98819.91
2022-10-24T07:13:55.301Z,98820.06
2022-10-24T07:16:25.229Z,98814.97
2022-10-24T07:18:52.003Z,98809.09
2022-10-24T07:21:20.682Z,98815.34
2022-10-24T07:23:47.278Z,98817.03
2022-10-24T07:26:16.242Z,98823.09
2022-10-24T07:28:45.755Z,98830.03
2022-10-24T07:31:15.023Z,98830.84
2022-10-24T07:33:41.857Z,98830.84
2022-10-24T07:36:08.584Z,98834.53
2022-10-24T07:38:35.754Z,98831.16
2022-10-24T07:41:06.223Z,98834.63
2022-10-24T07:43:33.072Z,98830.31
2022-10-24T07:48:26.585Z,98836.47
2022-10-24T07:50:54.321Z,98842.47
2022-10-24T07:53:20.888Z,98838.22
2022-10-24T07:55:47.385Z,98847.69
2022-10-24T07:58:14.182Z,98838.28
2022-10-24T08:00:44.964Z,98828.81
2022-10-24T08:03:12.063Z,98835.75
2022-10-24T08:05:41.906Z,98831.69
2022-10-24T08:08:27.377Z,98832.56
2022-10-24T08:10:55.503Z,98832.78
2022-10-24T08:13:22.079Z,98830.13
2022-10-24T08:15:48.550Z,98820.94
2022-10-24T08:18:15.103Z,98816.06
2022-10-24T08:20:41.995Z,98826.41
2022-10-24T08:23:08.587Z,98827.50
2022-10-24T08:25:35.791Z,98831.03
2022-10-24T08:28:06.591Z,98826.91
2022-10-24T08:30:36.398Z,98821.03
2022-10-24T08:33:03.297Z,98809.06
2022-10-24T08:35:29.936Z,98823.03
2022-10-24T08:37:56.503Z,98822.31
2022-10-24T08:40:23.103Z,98812.97
2022-10-24T08:42:49.766Z,98820.81
2022-10-24T08:45:27.404Z,98826.97
2022-10-24T08:48:07.620Z,98820.06
2022-10-24T08:50:36.193Z,98816.59
2022-10-24T08:53:07.183Z,98824.34
2022-10-24T08:55:49.406Z,98817.63
2022-10-24T08:58:24.051Z,98834.88
2022-10-24T09:00:52.752Z,98825.50
2022-10-24T09:06:22.677Z,98828.38
2022-10-24T09:09:04.284Z,98824.06
2022-10-24T09:11:43.879Z,98825.03
2022-10-24T09:14:16.332Z,98824.31
2022-10-24T09:16:45.405Z,98832.97
2022-10-24T09:19:15.797Z,98833.97
2022-10-24T09:21:43.470Z,98836.53
2022-10-24T09:24:54.152Z,98851.47
2022-10-24T09:27:24.934Z,98837.69
2022-10-24T09:29:51.927Z,98845.59
2022-10-24T09:32:23.588Z,98852.56
2022-10-24T09:34:50.688Z,98860.41
2022-10-24T09:37:43.989Z,98868.34
2022-10-24T09:40:33.196Z,98870.16
2022-10-24T09:43:21.906Z,98870.16
2022-10-24T09:46:00.758Z,98870.38
2022-10-24T09:48:50.630Z,98886.06
2022-10-24T09:51:26.071Z,98889.50
2022-10-24T09:54:20.587Z,98897.41
2022-10-24T09:56:54.391Z,98909.41
2022-10-24T09:59:32.951Z,98905.06
2022-10-24T10:02:14.763Z,98915.28
2022-10-24T10:04:41.684Z,98913.53
2022-10-24T10:07:14.316Z,98923.97
2022-10-24T10:09:55.695Z,98925.69
2022-10-24T10:12:35.203Z,98936.94
2022-10-24T10:15:26.909Z,98936.94
2022-10-24T10:17:56.206Z,98946.56
2022-10-24T10:20:38.962Z,98945.63
2022-10-24T10:23:25.356Z,98946.34
2022-10-24T10:26:23.006Z,98960.13
2022-10-24T10:29:24.957Z,98957.56
2022-10-24T10:32:17.455Z,98948.19
2022-10-24T10:34:51.671Z,98957.81
2022-10-24T10:37:30.354Z,98954.38
2022-10-24T10:40:02.918Z,98956.13
2022-10-24T10:42:39.018Z,98957.78
2022-10-24T10:45:28.334Z,98953.44
2022-10-24T10:48:26.547Z,98943.19
2022-10-24T10:51:19.344Z,98943.16
2022-10-24T10:53:45.884Z,98945.75
2022-10-24T10:56:32.384Z,98945.13
2022-10-24T10:59:08.515Z,98948.69
2022-10-24T11:01:48.401Z,98946.22
2022-10-24T11:04:18.059Z,98941.94
2022-10-24T11:07:13.806Z,98957.66
2022-10-24T11:09:45.948Z,98959.47
2022-10-24T11:12:45.073Z,98959.59
2022-10-24T11:15:22.346Z,98963.91
2022-10-24T11:18:18.743Z,98957.94
2022-10-24T11:20:50.756Z,98961.50
2022-10-24T11:23:29.220Z,98939.97
2022-10-24T11:26:03.256Z,98947.81
2022-10-24T11:28:42.400Z,98960.88
2022-10-24T11:31:30.734Z,98947.88
2022-10-24T11:34:04.798Z,98938.31
2022-10-24T11:36:52.096Z,98949.56
2022-10-24T11:39:24.990Z,98928.72
2022-10-24T11:42:00.576Z,98942.69
2022-10-24T11:44:40.350Z,98928.94
2022-10-24T11:47:25.280Z,98917.66
2022-10-24T11:50:03.789Z,98911.63
2022-10-24T11:52:39.223Z,98917.78
2022-10-24T11:55:18.572Z,98920.38
2022-10-24T11:57:48.748Z,98933.44
2022-10-24T12:00:21.321Z,98920.41
2022-10-24T12:03:08.414Z,98925.63
2022-10-24T12:05:56.692Z,98933.31
2022-10-24T12:08:52.764Z,98927.13
2022-10-24T12:11:46.744Z,98934.06
2022-10-24T12:14:32.342Z,98929.59
2022-10-24T12:17:29.412Z,98931.28
2022-10-24T12:19:56.459Z,98926.19
2022-10-24T12:22:40.830Z,98935.84
2022-10-24T12:25:18.430Z,98933.22
2022-10-24T12:27:45.285Z,98937.59
2022-10-24T12:30:21.929Z,98929.84
2022-10-24T12:32:51.406Z,98932.47
2022-10-24T12:35:31.249Z,98922.06
2022-10-24T12:37:58.590Z,98926.34
2022-10-24T12:40:48.101Z,98921.19
2022-10-24T12:43:16.686Z,98913.34
2022-10-24T12:45:43.160Z,98915.13
2022-10-24T12:48:14.111Z,98913.41
2022-10-24T12:50:40.572Z,98914.25
2022-10-24T12:53:18.783Z,98924.63
2022-10-24T12:55:51.279Z,98927.22
2022-10-24T12:58:25.002Z,98916.84
2022-10-24T13:01:16.628Z,98934.13
2022-10-24T13:03:55.071Z,98937.53
2022-10-24T13:07:19.597Z,98934.84
2022-10-24T13:09:58.681Z,98935.66
2022-10-24T13:13:01.269Z,98926.06
2022-10-24T13:15:49.339Z,98932.97
2022-10-24T13:18:37.825Z,98922.53
2022-10-24T13:21:17.722Z,98918.22
2022-10-24T13:23:48.367Z,98927.00
2022-10-24T13:26:37.921Z,98926.09
2022-10-24T13:29:05.808Z,98922.69
2022-10-24T13:31:32.175Z,98923.53
2022-10-24T13:34:19.218Z,98911.38
2022-10-24T13:36:49.707Z,98916.72
2022-10-24T13:39:19.895Z,98922.75
2022-10-24T13:41:55.939Z,98928.72
2022-10-24T13:44:29.592Z,98925.25
2022-10-24T13:47:11.349Z,98922.59
2022-10-24T13:49:43.179Z,98916.56
2022-10-24T13:52:24.392Z,98932.19
2022-10-24T13:54:57.286Z,98937.38
2022-10-24T13:57:26.351Z,98938.22
2022-10-24T13:59:58.816Z,98940.84
2022-10-24T14:02:31.329Z,98941.59
2022-10-24T14:05:00.023Z,98943.28
2022-10-24T14:07:29.542Z,98947.47
2022-10-24T14:10:03.923Z,98943.91
2022-10-24T14:12:32.697Z,98947.38
2022-10-24T14:15:02.573Z,98953.41
2022-10-24T14:17:33.648Z,98951.66
2022-10-24T14:20:09.750Z,98949.91
2022-10-24T14:22:39.913Z,98955.91
2022-10-24T14:25:24.041Z,98957.63
2022-10-24T14:27:52.049Z,98958.47
2022-10-24T14:30:21.170Z,98963.66
2022-10-24T14:32:48.026Z,98962.78
2022-10-24T14:35:15.127Z,98960.16
2022-10-24T14:37:41.783Z,98956.53
2022-10-24T14:40:26.739Z,98952.22
2022-10-24T14:42:53.344Z,98963.63
2022-10-24T14:45:33.271Z,98968.69
2022-10-24T14:48:03.188Z,98957.38
2022-10-24T14:50:44.014Z,98975.53
2022-10-24T14:53:39.839Z,98957.13
2022-10-24T14:56:36.170Z,98965.81
2022-10-24T14:59:07.440Z,98967.63
2022-10-24T15:01:34.136Z,98965.03
2022-10-24T15:04:03.367Z,98970.13
2022-10-24T15:06:41.974Z,98961.63
2022-10-24T15:09:11.727Z,98958.03
2022-10-24T15:11:49.620Z,98959.69
2022-10-24T15:14:40.877Z,98963.97
2022-10-24T15:17:32.689Z,98963.97
2022-10-24T15:20:01.723Z,98958.63
2022-10-24T15:22:34.223Z,98962.16
2022-10-24T15:25:16.524Z,98963.84
2022-10-24T15:27:45.574Z,98962.94
2022-10-24T15:30:21.355Z,98966.34
2022-10-24T15:32:49.399Z,98966.31
2022-10-24T15:35:16.696Z,98966.28
2022-10-24T15:38:13.112Z,98961.94
2022-10-24T15:40:43.241Z,98967.06
2022-10-24T15:43:15.301Z,98964.44
2022-10-24T15:45:41.862Z,98964.47
2022-10-24T15:48:08.524Z,98967.06
2022-10-24T15:50:35.767Z,98970.59
2022-10-24T15:53:03.962Z,98965.13
2022-10-24T15:55:32.239Z,98966.94
2022-10-24T15:58:03.183Z,98960.78
2022-10-24T16:00:29.826Z,98959.78
2022-10-24T16:02:58.430Z,98964.94
2022-10-24T16:05:29.640Z,98954.50
2022-10-24T16:07:56.148Z,98959.63
2022-10-24T16:10:23.159Z,98955.22
2022-10-24T16:12:50.660Z,98956.03
2022-10-24T16:15:27.533Z,98965.44
2022-10-24T16:17:54.124Z,98970.41
2022-10-24T16:20:21.275Z,98967.78
2022-10-24T16:22:48.214Z,98976.31
2022-10-24T16:25:23.278Z,98983.09
2022-10-24T16:27:50.057Z,98983.72
2022-10-24T16:30:19.443Z,98984.47
2022-10-24T16:32:46.337Z,98991.22
2022-10-24T16:35:19.289Z,98986.00
2022-10-24T16:37:45.785Z,98992.84
2022-10-24T16:40:12.623Z,98988.34
2022-10-24T16:42:39.133Z,98990.78
2022-10-24T16:45:06.327Z,98985.69
2022-10-24T16:47:33.297Z,98996.09
2022-10-24T16:50:00.157Z,98995.19
2022-10-24T16:52:28.072Z,98995.72
2022-10-24T16:54:54.727Z,98998.31
2022-10-24T16:57:21.648Z,99004.25
2022-10-24T16:59:48.505Z,99003.31
2022-10-24T17:02:16.646Z,99005.16
2022-10-24T17:04:44.057Z,99011.97
2022-10-24T17:07:12.533Z,99019.66
2022-10-24T17:09:39.075Z,99017.44
2022-10-24T17:12:06.599Z,99015.53
2022-10-24T17:14:34.828Z,99016.53
2022-10-24T17:17:01.450Z,99008.88
2022-10-24T17:19:27.995Z,99012.00
2022-10-24T17:21:54.661Z,99016.47
2022-10-24T17:24:25.529Z,99016.25
2022-10-24T17:26:52.749Z,99028.56
2022-10-24T17:29:25.743Z,99022.41
2022-10-24T17:31:52.856Z,99029.53
2022-10-24T17:34:19.485Z,99029.44
2022-10-24T17:36:50.025Z,99035.53
2022-10-24T17:39:25.916Z,99032.97
2022-10-24T17:41:56.023Z,99042.50
2022-10-24T17:44:22.921Z,99042.66
2022-10-24T17:46:51.469Z,99038.31
2022-10-24T17:49:21.704Z,99032.50
2022-10-24T17:51:48.952Z,99031.72
2022-10-24T17:54:15.466Z,99019.00
2022-10-24T17:56:42.725Z,99015.94
2022-10-24T17:59:09.520Z,99007.63
2022-10-24T18:01:36.567Z,99006.78
2022-10-24T18:04:03.948Z,99011.59
2022-10-24T18:06:30.696Z,99009.81
2022-10-24T18:08:57.261Z,99016.38
2022-10-24T18:11:24.306Z,99023.41
2022-10-24T18:13:50.889Z,99007.69
2022-10-24T18:16:18.421Z,99016.47
2022-10-24T18:18:46.082Z,99011.72
2022-10-24T18:21:22.333Z,99016.13
2022-10-24T18:23:48.977Z,99024.72
2022-10-24T18:26:18.102Z,99037.97
2022-10-24T18:28:46.424Z,99047.72
2022-10-24T18:31:18.314Z,99056.22
2022-10-24T18:33:44.859Z,99049.28
2022-10-24T18:36:15.409Z,99058.13
2022-10-24T18:38:42.300Z,99057.78
2022-10-24T18:41:30.179Z,99074.47
2022-10-24T18:43:59.618Z,99079.25
2022-10-24T18:46:27.476Z,99081.63
2022-10-24T18:48:54.492Z,99089.47
2022-10-24T18:51:33.313Z,99096.78
2022-10-24T18:54:04.431Z,99093.72
2022-10-24T18:56:31.233Z,99090.88
2022-10-24T18:58:58.585Z,99091.78
2022-10-24T19:01:41.393Z,99102.66
2022-10-24T19:04:17.261Z,99103.63
2022-10-24T19:06:44.270Z,99102.97
2022-10-24T19:09:16.811Z,99109.69
2022-10-24T19:11:43.559Z,99126.31
2022-10-24T19:14:10.176Z,99116.94
2022-10-24T19:16:36.732Z,99120.34
2022-10-24T19:19:03.521Z,99123.09
2022-10-24T19:21:30.371Z,99122.84
2022-10-24T19:23:56.941Z,99126.16
2022-10-24T19:26:23.544Z,99122.97
2022-10-24T19:28:50.517Z,99130.72
2022-10-24T19:31:17.003Z,99129.50
2022-10-24T19:33:43.665Z,99134.84
2022-10-24T19:36:13.351Z,99152.66
2022-10-24T19:38:43.424Z,99153.63
2022-10-24T19:41:11.312Z,99148.22
2022-10-24T19:43:38.137Z,99151.59
2022-10-24T19:46:19.390Z,99150.66
2022-10-24T19:48:49.247Z,99157.50
2022-10-24T19:51:17.391Z,99155.00
2022-10-24T19:53:44.418Z,99155.06
2022-10-24T19:56:13.743Z,99154.19
2022-10-24T19:58:41.460Z,99154.91
2022-10-24T20:01:09.650Z,99157.09
2022-10-24T20:03:37.168Z,99158.41
2022-10-24T20:06:03.987Z,99164.69
2022-10-24T20:08:30.546Z,99167.25
2022-10-24T20:10:57.070Z,99163.81
2022-10-24T20:13:23.655Z,99163.94
2022-10-24T20:16:01.186Z,99171.50
2022-10-24T20:18:28.817Z,99169.06
2022-10-24T20:20:55.532Z,99169.75
2022-10-24T20:23:22.635Z,99166.00
2022-10-24T20:25:50.835Z,99164.03
2022-10-24T20:28:17.367Z,99170.44
2022-10-24T20:30:46.719Z,99173.06
2022-10-24T20:33:14.817Z,99169.34
2022-10-24T20:35:42.444Z,99176.47
2022-10-24T20:38:09.152Z,99183.34
2022-10-24T20:40:35.884Z,99185.25
2022-10-24T20:43:04.689Z,99191.09
2022-10-24T20:45:34.146Z,99188.03
2022-10-24T20:48:01.505Z,99187.78
2022-10-24T20:50:28.043Z,99204.66
2022-10-24T20:52:54.786Z,99190.63
2022-10-24T20:55:31.795Z,99206.28
2022-10-24T20:58:06.271Z,99209.03
2022-10-24T21:00:33.219Z,99211.00
2022-10-24T21:02:59.832Z,99214.69
2022-10-24T21:05:27.382Z,99216.94
2022-10-24T21:07:53.932Z,99225.53
2022-10-24T21:10:20.442Z,99228.44
2022-10-24T21:12:47.819Z,99216.16
2022-10-24T21:15:14.606Z,99225.19
2022-10-24T21:17:41.109Z,99227.72
2022-10-24T21:20:07.963Z,99221.28
2022-10-24T21:22:34.572Z,99226.75
2022-10-24T21:25:01.171Z,99228.47
2022-10-24T21:27:27.779Z,99238.66
2022-10-24T21:29:54.334Z,99234.66
2022-10-24T21:32:20.912Z,99233.56
2022-10-24T21:34:47.452Z,99242.03
2022-10-24T21:37:14.024Z,99251.81
2022-10-24T21:39:40.521Z,99244.69
2022-10-24T21:42:07.076Z,99257.94
2022-10-24T21:44:34.642Z,99257.75
2022-10-24T21:47:01.276Z,99261.44
2022-10-24T21:49:27.875Z,99257.88
2022-10-24T21:51:57.584Z,99258.69
2022-10-24T21:54:24.991Z,99248.84
2022-10-24T21:56:51.798Z,99261.28
2022-10-24T21:59:20.656Z,99252.69
2022-10-24T22:01:48.489Z,99257.97
2022-10-24T22:04:15.626Z,99271.84
2022-10-24T22:06:42.956Z,99271.13
2022-10-24T22:09:12.593Z,99269.00
2022-10-24T22:11:39.484Z,99272.72
2022-10-24T22:14:06.548Z,99277.03
2022-10-24T22:16:33.607Z,99275.84
2022-10-24T22:19:04.623Z,99284.50
2022-10-24T22:21:36.327Z,99289.66
2022-10-24T22:24:08.645Z,99291.13
2022-10-24T22:26:35.952Z,99298.03
2022-10-24T22:29:03.087Z,99303.22
2022-10-24T22:31:29.997Z,99297.41
2022-10-24T22:33:57.391Z,99297.38
2022-10-24T22:36:47.126Z,99292.22
2022-10-24T22:39:20.532Z,99291.88
2022-10-24T22:41:47.843Z,99291.31
2022-10-24T22:44:16.821Z,99286.94
2022-10-24T22:46:49.427Z,99290.72
2022-10-24T22:49:32.576Z,99292.13
2022-10-24T22:51:59.419Z,99297.34
2022-10-24T22:54:30.306Z,99292.38
2022-10-24T22:56:57.130Z,99293.31
2022-10-24T22:59:23.980Z,99280.16
2022-10-24T23:02:00.454Z,99296.34
2022-10-24T23:04:30.043Z,99301.78
2022-10-24T23:06:58.522Z,99301.47
2022-10-24T23:09:25.473Z,99297.72
2022-10-24T23:11:52.537Z,99302.72
2022-10-24T23:14:19.288Z,99300.88
2022-10-24T23:16:59.898Z,99314.69
2022-10-24T23:19:28.854Z,99313.50
2022-10-24T23:22:01.592Z,99322.69
2022-10-24T23:24:28.494Z,99314.84
2022-10-24T23:27:13.342Z,99327.63
2022-10-24T23:29:44.764Z,99331.91
2022-10-24T23:32:32.936Z,99328.13
2022-10-24T23:35:00.220Z,99337.81
2022-10-24T23:37:38.859Z,99339.63
2022-10-24T23:40:11.382Z,99335.28
2022-10-24T23:42:38.187Z,99332.28
2022-10-24T23:45:05.370Z,99332.56
2022-10-24T23:47:50.268Z,99334.72
2022-10-24T23:50:38.315Z,99339.72
2022-10-24T23:53:32.712Z,99337.81
2022-10-24T23:58:26.182Z,99348.59
